createdAt,value
2018-11-02T00:01:35.722Z,18.15
2018-11-02T00:04:04.963Z,21.73
2018-11-02T00:06:34.604Z,20.32
2018-11-02T00:09:04.067Z,20.53
2018-11-02T00:11:33.314Z,21.13
2018-11-02T00:14:02.547Z,19.70
2018-11-02T00:16:31.944Z,21.00
2018-11-02T00:19:01.144Z,20.50
2018-11-02T00:21:30.383Z,20.37
2018-11-02T00:23:59.629Z,19.27
2018-11-02T00:26:28.963Z,19.03
2018-11-02T00:28:58.201Z,21.00
2018-11-02T00:31:27.545Z,20.02
2018-11-02T00:33:56.826Z,22.70
2018-11-02T00:36:26.054Z,20.83
2018-11-02T00:38:55.307Z,22.07
2018-11-02T00:41:26.575Z,22.37
2018-11-02T00:43:56.155Z,22.23
2018-11-02T00:46:25.286Z,23.15
2018-11-02T00:48:54.553Z,23.77
2018-11-02T00:51:23.781Z,23.73
2018-11-02T00:53:52.996Z,21.70
2018-11-02T00:56:22.352Z,26.67
2018-11-02T00:58:51.696Z,25.68
2018-11-02T01:01:21.089Z,27.87
2018-11-02T01:03:50.387Z,24.75
2018-11-02T01:06:19.709Z,27.37
2018-11-02T01:08:49.454Z,25.48
2018-11-02T01:11:18.719Z,26.35
2018-11-02T01:13:48.001Z,29.55
2018-11-02T01:16:17.230Z,29.35
2018-11-02T01:18:46.463Z,29.45
2018-11-02T01:21:16.772Z,31.55
2018-11-02T01:23:45.976Z,30.90
2018-11-02T01:26:15.203Z,30.75
2018-11-02T01:28:44.696Z,32.48
2018-11-02T01:31:13.894Z,33.35
2018-11-02T01:33:43.178Z,32.00
2018-11-02T01:36:12.510Z,29.80
2018-11-02T01:38:41.737Z,35.38
2018-11-02T01:41:11.351Z,34.03
2018-11-02T01:43:40.651Z,37.60
2018-11-02T01:46:09.846Z,34.83
2018-11-02T01:48:39.090Z,35.35
2018-11-02T01:51:08.465Z,33.23
2018-11-02T01:53:37.694Z,36.35
2018-11-02T01:56:06.925Z,36.53
2018-11-02T01:58:36.208Z,36.03
2018-11-02T02:01:05.655Z,35.43
2018-11-02T02:03:34.875Z,36.15
2018-11-02T02:06:07.914Z,36.05
2018-11-02T02:08:37.145Z,37.88
2018-11-02T02:11:06.537Z,37.33
2018-11-02T02:13:35.851Z,37.20
2018-11-02T02:16:05.260Z,38.63
2018-11-02T02:18:34.598Z,35.08
2018-11-02T02:21:03.893Z,35.30
2018-11-02T02:23:33.245Z,36.53
2018-11-02T02:26:02.562Z,35.20
2018-11-02T02:28:32.905Z,36.45
2018-11-02T02:31:02.113Z,35.52
2018-11-02T02:33:31.346Z,36.25
2018-11-02T02:36:04.526Z,35.25
2018-11-02T02:38:33.746Z,32.10
2018-11-02T02:41:03.114Z,34.63
2018-11-02T02:43:32.367Z,34.78
2018-11-02T02:46:01.615Z,37.08
2018-11-02T02:48:31.293Z,33.28
2018-11-02T02:51:00.519Z,31.97
2018-11-02T02:53:29.775Z,32.63
2018-11-02T02:55:59.185Z,30.92
2018-11-02T02:58:28.444Z,30.12
2018-11-02T03:00:57.668Z,31.02
2018-11-02T03:03:26.985Z,29.92
2018-11-02T03:05:56.231Z,29.30
2018-11-02T03:08:25.450Z,25.68
2018-11-02T03:10:54.717Z,27.22
2018-11-02T03:13:23.914Z,26.55
2018-11-02T03:15:53.342Z,27.17
2018-11-02T03:18:22.645Z,23.57
2018-11-02T03:20:51.821Z,24.70
2018-11-02T03:23:21.042Z,22.55
2018-11-02T03:25:50.252Z,23.47
2018-11-02T03:28:19.525Z,24.77
2018-11-02T03:30:48.833Z,21.40
2018-11-02T03:33:18.070Z,23.42
2018-11-02T03:35:47.396Z,22.60
2018-11-02T03:38:16.618Z,19.70
2018-11-02T03:40:45.858Z,22.77
2018-11-02T03:43:15.114Z,20.70
2018-11-02T03:45:44.470Z,19.77
2018-11-02T03:48:13.697Z,18.43
2018-11-02T03:50:43.350Z,19.75
2018-11-02T03:53:12.713Z,18.70
2018-11-02T03:55:43.092Z,18.87
2018-11-02T03:58:12.319Z,17.15
2018-11-02T04:00:41.542Z,18.90
2018-11-02T04:03:10.846Z,20.00
2018-11-02T04:05:40.761Z,17.40
2018-11-02T04:08:10.214Z,17.57
2018-11-02T04:10:39.434Z,18.93
2018-11-02T04:13:09.273Z,19.92
2018-11-02T04:15:38.635Z,17.40
2018-11-02T04:18:08.538Z,17.87
2018-11-02T04:20:39.531Z,17.03
2018-11-02T04:23:08.845Z,18.40
2018-11-02T04:25:38.101Z,17.03
2018-11-02T04:28:07.739Z,15.50
2018-11-02T04:30:36.952Z,16.37
2018-11-02T04:33:06.243Z,16.57
2018-11-02T04:35:35.874Z,16.53
2018-11-02T04:38:05.373Z,16.17
2018-11-02T04:40:34.784Z,17.00
2018-11-02T04:43:04.571Z,16.60
2018-11-02T04:45:39.738Z,16.63
2018-11-02T04:48:12.488Z,16.00
2018-11-02T04:50:42.043Z,17.50
2018-11-02T04:53:11.261Z,15.23
2018-11-02T04:55:42.462Z,14.97
2018-11-02T04:58:11.680Z,15.60
2018-11-02T05:00:40.929Z,15.37
2018-11-02T05:03:10.214Z,15.03
2018-11-02T05:05:39.509Z,16.70
2018-11-02T05:08:08.779Z,15.57
2018-11-02T05:10:38.102Z,15.77
2018-11-02T05:13:07.320Z,16.03
2018-11-02T05:15:36.582Z,14.70
2018-11-02T05:18:05.961Z,14.80
2018-11-02T05:20:35.189Z,14.40
2018-11-02T05:23:04.702Z,15.67
2018-11-02T05:25:34.082Z,14.47
2018-11-02T05:28:03.418Z,15.27
2018-11-02T05:30:32.610Z,14.70
2018-11-02T05:33:02.244Z,16.37
2018-11-02T05:35:31.496Z,15.48
2018-11-02T05:38:00.722Z,15.63
2018-11-02T05:40:30.017Z,15.30
2018-11-02T05:43:00.370Z,13.90
2018-11-02T05:45:29.581Z,15.00
2018-11-02T05:47:58.862Z,15.20
2018-11-02T05:50:28.074Z,16.07
2018-11-02T05:52:57.405Z,12.63
2018-11-02T05:55:26.738Z,16.43
2018-11-02T05:57:55.999Z,14.00
2018-11-02T06:00:25.237Z,14.03
2018-11-02T06:02:54.492Z,14.90
2018-11-02T06:05:23.835Z,14.77
2018-11-02T06:07:53.224Z,15.40
2018-11-02T06:10:22.371Z,15.17
2018-11-02T06:12:51.623Z,14.60
2018-11-02T06:15:20.922Z,14.20
2018-11-02T06:17:50.326Z,14.50
2018-11-02T06:20:19.646Z,13.97
2018-11-02T06:22:48.858Z,13.53
2018-11-02T06:25:18.190Z,14.80
2018-11-02T06:27:47.405Z,15.23
2018-11-02T06:30:16.678Z,13.63
2018-11-02T06:32:46.010Z,14.60
2018-11-02T06:35:16.287Z,15.27
2018-11-02T06:37:45.560Z,11.80
2018-11-02T06:40:14.809Z,14.43
2018-11-02T06:42:44.058Z,15.07
2018-11-02T06:45:13.353Z,13.93
2018-11-02T06:47:42.668Z,13.27
2018-11-02T06:50:11.951Z,14.43
2018-11-02T06:52:41.262Z,13.40
2018-11-02T06:55:10.738Z,15.10
2018-11-02T06:57:40.032Z,15.53
2018-11-02T07:00:12.244Z,15.53
2018-11-02T07:02:41.617Z,14.23
2018-11-02T07:05:10.950Z,13.13
2018-11-02T07:07:40.473Z,13.27
2018-11-02T07:10:10.258Z,14.50
2018-11-02T07:12:39.482Z,13.97
2018-11-02T07:15:08.813Z,13.77
2018-11-02T07:17:38.051Z,13.67
2018-11-02T07:20:07.538Z,15.07
2018-11-02T07:22:36.931Z,13.40
2018-11-02T07:25:07.257Z,14.77
2018-11-02T07:27:36.467Z,12.27
2018-11-02T07:30:07.107Z,13.50
2018-11-02T07:32:36.482Z,13.80
2018-11-02T07:35:06.244Z,13.00
2018-11-02T07:37:36.704Z,12.10
2018-11-02T07:40:07.586Z,11.93
2018-11-02T07:42:36.816Z,12.30
2018-11-02T07:45:07.014Z,14.50
2018-11-02T07:47:36.351Z,12.23
2018-11-02T07:50:07.335Z,12.70
2018-11-02T07:52:37.465Z,11.70
2018-11-02T07:55:08.587Z,12.70
2018-11-02T07:57:38.037Z,11.17
2018-11-02T08:00:10.892Z,12.47
2018-11-02T08:02:42.086Z,11.80
2018-11-02T08:05:11.670Z,11.60
2018-11-02T08:07:40.961Z,12.13
2018-11-02T08:10:10.431Z,11.63
2018-11-02T08:12:39.771Z,12.27
2018-11-02T08:15:10.626Z,12.00
2018-11-02T08:17:40.953Z,12.50
2018-11-02T08:20:11.647Z,12.53
2018-11-02T08:22:41.514Z,12.57
2018-11-02T08:25:11.489Z,13.03
2018-11-02T08:27:41.203Z,12.37
2018-11-02T08:30:11.432Z,12.60
2018-11-02T08:32:40.816Z,13.13
2018-11-02T08:35:12.147Z,13.13
2018-11-02T08:37:41.867Z,12.30
2018-11-02T08:40:12.626Z,12.77
2018-11-02T08:42:42.565Z,13.33
2018-11-02T08:45:12.129Z,11.80
2018-11-02T08:47:41.386Z,12.27
2018-11-02T08:50:11.370Z,10.97
2018-11-02T08:52:40.587Z,12.53
2018-11-02T08:55:09.803Z,12.50
2018-11-02T08:57:40.181Z,13.53
2018-11-02T09:00:11.174Z,12.37
2018-11-02T09:02:40.557Z,12.50
2018-11-02T09:05:10.238Z,14.53
2018-11-02T09:07:39.518Z,12.70
2018-11-02T09:10:10.692Z,13.53
2018-11-02T09:12:40.445Z,13.10
2018-11-02T09:15:09.805Z,14.47
2018-11-02T09:17:39.022Z,14.23
2018-11-02T09:20:08.416Z,13.80
2018-11-02T09:22:37.706Z,14.07
2018-11-02T09:25:08.642Z,16.53
2018-11-02T09:27:38.065Z,14.33
2018-11-02T09:30:12.957Z,14.97
2018-11-02T09:32:42.251Z,13.13
2018-11-02T09:35:12.089Z,14.70
2018-11-02T09:37:41.686Z,13.43
2018-11-02T09:40:11.816Z,13.47
2018-11-02T09:42:41.443Z,12.70
2018-11-02T09:45:12.896Z,13.87
2018-11-02T09:47:42.412Z,12.20
2018-11-02T09:50:12.137Z,12.90
2018-11-02T09:52:41.509Z,13.50
2018-11-02T09:55:12.916Z,11.90
2018-11-02T09:57:42.812Z,10.50
2018-11-02T10:00:12.981Z,9.53
2018-11-02T10:02:42.311Z,9.40
2018-11-02T10:05:13.108Z,9.30
2018-11-02T10:07:42.982Z,9.30
2018-11-02T10:10:12.946Z,9.60
2018-11-02T10:12:42.246Z,8.10
2018-11-02T10:15:13.370Z,8.67
2018-11-02T10:17:42.648Z,7.70
2018-11-02T10:20:12.288Z,6.77
2018-11-02T10:22:41.719Z,7.27
2018-11-02T10:25:11.836Z,5.60
2018-11-02T10:27:42.690Z,3.90
2018-11-02T10:30:14.082Z,3.90
2018-11-02T10:32:46.971Z,7.10
2018-11-02T10:35:16.360Z,5.33
2018-11-02T10:37:47.242Z,4.13
2018-11-02T10:40:17.818Z,4.03
2018-11-02T10:42:52.263Z,3.00
2018-11-02T10:45:26.411Z,3.50
2018-11-02T10:47:55.668Z,3.90
2018-11-02T10:50:24.905Z,3.20
2018-11-02T10:52:54.373Z,3.70
2018-11-02T10:55:23.685Z,4.60
2018-11-02T10:57:52.904Z,3.70
2018-11-02T11:00:27.506Z,2.30
2018-11-02T11:02:56.813Z,2.30
2018-11-02T11:05:26.103Z,2.30
2018-11-02T11:07:55.336Z,2.70
2018-11-02T11:10:24.610Z,2.60
2018-11-02T11:12:54.120Z,2.43
2018-11-02T11:15:23.233Z,2.67
2018-11-02T11:17:53.617Z,3.93
2018-11-02T11:20:22.942Z,3.43
2018-11-02T11:22:52.179Z,3.27
2018-11-02T11:25:21.414Z,2.20
2018-11-02T11:27:50.756Z,2.50
2018-11-02T11:30:20.742Z,3.27
2018-11-02T11:32:51.125Z,3.10
2018-11-02T11:35:20.582Z,2.47
2018-11-02T11:37:49.804Z,2.17
2018-11-02T11:40:20.499Z,3.27
2018-11-02T11:42:49.882Z,3.30
2018-11-02T11:45:19.799Z,3.17
2018-11-02T11:47:49.016Z,2.60
2018-11-02T11:50:23.395Z,2.40
2018-11-02T11:52:54.514Z,2.40
2018-11-02T11:55:27.163Z,2.70
2018-11-02T11:57:56.373Z,1.90
2018-11-02T12:00:25.690Z,1.90
2018-11-02T12:02:55.043Z,3.03
2018-11-02T12:05:24.874Z,2.70
2018-11-02T12:07:54.176Z,2.00
2018-11-02T12:10:25.290Z,2.23
2018-11-02T12:12:54.770Z,2.30
2018-11-02T12:15:24.330Z,1.37
2018-11-02T12:17:53.732Z,1.20
2018-11-02T12:20:26.515Z,1.70
2018-11-02T12:22:58.349Z,2.13
2018-11-02T12:25:27.627Z,2.13
2018-11-02T12:27:56.920Z,1.87
2018-11-02T12:31:29.508Z,1.40
2018-11-02T12:33:58.876Z,2.10
2018-11-02T12:36:35.035Z,1.53
2018-11-02T12:39:05.398Z,1.30
2018-11-02T12:41:34.851Z,1.80
2018-11-02T12:44:04.050Z,2.07
2018-11-02T12:46:33.285Z,1.60
2018-11-02T12:49:02.884Z,2.27
2018-11-02T12:51:31.960Z,1.57
2018-11-02T12:54:01.170Z,1.43
2018-11-02T12:56:30.498Z,1.47
2018-11-02T12:59:00.126Z,2.07
2018-11-02T13:01:29.386Z,1.73
2018-11-02T13:03:58.716Z,1.60
2018-11-02T13:06:29.627Z,1.50
2018-11-02T13:08:58.995Z,1.60
2018-11-02T13:11:28.231Z,2.03
2018-11-02T13:13:58.110Z,2.10
2018-11-02T13:16:27.341Z,2.07
2018-11-02T13:18:56.728Z,1.60
2018-11-02T13:21:26.027Z,1.77
2018-11-02T13:23:55.228Z,2.20
2018-11-02T13:26:25.531Z,1.50
2018-11-02T13:28:54.703Z,1.50
2018-11-02T13:31:23.959Z,1.67
2018-11-02T13:33:53.314Z,1.43
2018-11-02T13:36:22.680Z,3.23
2018-11-02T13:38:51.798Z,1.60
2018-11-02T13:41:21.111Z,1.30
2018-11-02T13:43:50.530Z,1.77
2018-11-02T13:46:21.030Z,2.30
2018-11-02T13:48:50.886Z,1.23
2018-11-02T13:51:20.147Z,1.20
2018-11-02T13:53:50.767Z,1.50
2018-11-02T13:56:20.240Z,0.87
2018-11-02T13:58:49.534Z,1.60
2018-11-02T14:01:18.886Z,1.10
2018-11-02T14:03:48.266Z,1.43
2018-11-02T14:06:17.528Z,0.97
2018-11-02T14:08:46.891Z,1.13
2018-11-02T14:11:16.221Z,1.00
2018-11-02T14:13:45.458Z,1.20
2018-11-02T14:16:14.648Z,1.50
2018-11-02T14:18:44.070Z,1.03
2018-11-02T14:21:13.384Z,1.30
2018-11-02T14:23:42.631Z,1.37
2018-11-02T14:26:12.137Z,1.07
2018-11-02T14:28:41.437Z,1.43
2018-11-02T14:31:10.674Z,1.53
2018-11-02T14:33:40.034Z,1.40
2018-11-02T14:36:09.290Z,1.57
2018-11-02T14:38:38.525Z,1.70
2018-11-02T14:41:08.039Z,1.43
2018-11-02T14:43:37.163Z,1.57
2018-11-02T14:46:07.750Z,1.50
2018-11-02T14:48:37.095Z,1.33
2018-11-02T14:51:08.415Z,2.27
2018-11-02T14:53:44.012Z,1.67
2018-11-02T14:56:14.061Z,1.03
2018-11-02T14:58:43.326Z,1.20
2018-11-02T15:01:12.665Z,1.20
2018-11-02T15:03:41.942Z,1.30
2018-11-02T15:06:11.190Z,1.57
2018-11-02T15:08:42.572Z,1.53
2018-11-02T15:11:11.996Z,1.30
2018-11-02T15:13:42.855Z,1.30
2018-11-02T15:16:12.053Z,1.37
2018-11-02T15:18:43.108Z,1.90
2018-11-02T15:21:12.498Z,4.47
2018-11-02T15:23:42.387Z,2.93
2018-11-02T15:26:18.787Z,3.70
2018-11-02T15:28:49.648Z,1.53
2018-11-02T15:31:19.056Z,1.70
2018-11-02T15:33:48.348Z,2.60
2018-11-02T15:36:21.156Z,1.43
2018-11-02T15:38:50.421Z,1.27
2018-11-02T15:41:19.643Z,2.80
2018-11-02T15:43:48.909Z,1.85
2018-11-02T15:46:18.176Z,1.70
2018-11-02T15:48:47.438Z,2.00
2018-11-02T15:51:16.740Z,1.10
2018-11-02T15:53:45.933Z,1.60
2018-11-02T15:56:15.195Z,1.30
2018-11-02T15:58:44.433Z,1.47
2018-11-02T16:01:22.313Z,1.33
2018-11-02T16:03:51.650Z,2.80
2018-11-02T16:06:21.029Z,2.23
2018-11-02T16:08:51.327Z,1.90
2018-11-02T16:11:20.665Z,1.77
2018-11-02T16:13:49.957Z,1.85
2018-11-02T16:16:19.568Z,1.67
2018-11-02T16:18:49.043Z,2.00
2018-11-02T16:21:18.353Z,2.00
2018-11-02T16:23:47.637Z,2.17
2018-11-02T16:26:18.122Z,2.10
2018-11-02T16:28:47.495Z,2.87
2018-11-02T16:31:16.870Z,1.80
2018-11-02T16:33:47.292Z,1.45
2018-11-02T16:36:16.549Z,1.92
2018-11-02T16:38:46.957Z,2.25
2018-11-02T16:41:16.226Z,2.20
2018-11-02T16:43:45.576Z,1.80
2018-11-02T16:46:14.723Z,2.20
2018-11-02T16:48:44.026Z,2.00
2018-11-02T16:51:13.335Z,1.47
2018-11-02T16:53:42.546Z,2.17
2018-11-02T16:56:11.845Z,2.70
2018-11-02T16:58:41.122Z,2.00
2018-11-02T17:01:10.356Z,3.50
2018-11-02T17:03:39.604Z,2.30
2018-11-02T17:06:08.944Z,2.65
2018-11-02T17:08:38.034Z,1.90
2018-11-02T17:11:07.257Z,2.62
2018-11-02T17:13:36.489Z,2.08
2018-11-02T17:16:06.149Z,2.77
2018-11-02T17:18:36.154Z,2.47
2018-11-02T17:21:05.543Z,2.70
2018-11-02T17:23:35.221Z,2.67
2018-11-02T17:26:05.779Z,2.37
2018-11-02T17:28:35.003Z,2.20
2018-11-02T17:31:04.232Z,2.22
2018-11-02T17:33:33.600Z,2.55
2018-11-02T17:36:02.904Z,2.00
2018-11-02T17:38:32.181Z,2.52
2018-11-02T17:41:01.455Z,3.90
2018-11-02T17:43:30.758Z,3.05
2018-11-02T17:46:00.100Z,3.22
2018-11-02T17:48:29.806Z,2.85
2018-11-02T17:50:59.133Z,2.90
2018-11-02T17:53:28.561Z,4.20
2018-11-02T17:55:57.903Z,3.20
2018-11-02T17:58:28.263Z,3.05
2018-11-02T18:00:57.960Z,2.83
2018-11-02T18:03:27.235Z,2.45
2018-11-02T18:05:56.891Z,2.40
2018-11-02T18:08:26.352Z,1.40
2018-11-02T18:10:55.528Z,2.20
2018-11-02T18:13:24.942Z,2.98
2018-11-02T18:15:54.211Z,2.65
2018-11-02T18:18:23.534Z,3.02
2018-11-02T18:20:53.481Z,3.30
2018-11-02T18:23:25.397Z,3.75
2018-11-02T18:26:23.017Z,3.20
2018-11-02T18:43:01.991Z,2.90
2018-11-02T18:45:32.319Z,2.95
2018-11-02T18:48:01.745Z,4.00
2018-11-02T18:50:32.157Z,3.00
2018-11-02T18:53:01.385Z,3.72
2018-11-02T18:55:30.920Z,3.33
2018-11-02T18:58:00.367Z,3.80
2018-11-02T19:00:29.746Z,4.92
2018-11-02T19:02:59.042Z,4.17
2018-11-02T19:05:28.479Z,4.25
2018-11-02T19:07:58.841Z,5.30
2018-11-02T19:10:28.097Z,5.72
2018-11-02T19:12:57.548Z,6.00
2018-11-02T19:21:53.579Z,7.05
2018-11-02T19:24:22.816Z,4.45
2018-11-02T19:26:52.190Z,6.08
2018-11-02T19:29:22.529Z,5.20
2018-11-02T19:31:52.837Z,5.05
2018-11-02T19:34:22.181Z,4.67
2018-11-02T19:36:51.326Z,4.97
2018-11-02T19:39:20.649Z,5.25
2018-11-02T19:41:51.022Z,5.03
2018-11-02T19:44:20.370Z,3.83
2018-11-02T19:46:49.573Z,4.47
2018-11-02T19:49:18.849Z,3.47
2018-11-02T19:51:48.157Z,3.40
2018-11-02T19:54:17.466Z,4.15
2018-11-02T19:56:46.751Z,6.28
2018-11-02T19:59:16.293Z,3.70
2018-11-02T20:01:46.551Z,3.72
2018-11-02T20:04:15.879Z,4.22
2018-11-02T20:06:45.166Z,3.65
2018-11-02T20:09:14.850Z,3.80
2018-11-02T20:11:44.288Z,3.92
2018-11-02T20:14:14.570Z,4.95
2018-11-02T20:16:43.923Z,4.45
2018-11-02T20:19:14.434Z,3.70
2018-11-02T20:21:49.620Z,4.30
2018-11-02T20:24:19.936Z,3.60
2018-11-02T20:26:51.090Z,5.87
2018-11-02T20:29:20.281Z,3.77
2018-11-02T20:31:49.686Z,7.15
2018-11-02T20:34:19.044Z,4.53
2018-11-02T20:36:48.337Z,4.85
2018-11-02T20:39:17.700Z,3.60
2018-11-02T20:41:46.984Z,2.87
2018-11-02T20:44:16.213Z,3.62
2018-11-02T20:46:45.453Z,6.95
2018-11-02T20:49:15.808Z,4.05
2018-11-02T20:51:45.160Z,3.47
2018-11-02T20:54:14.514Z,4.00
2018-11-02T20:56:43.805Z,4.85
2018-11-02T20:59:13.061Z,4.33
2018-11-02T21:01:42.294Z,4.30
2018-11-02T21:04:11.540Z,3.65
2018-11-02T21:06:40.907Z,4.28
2018-11-02T21:09:12.123Z,5.60
2018-11-02T21:11:41.463Z,4.75
2018-11-02T21:14:10.807Z,4.70
2018-11-02T21:16:39.845Z,4.62
2018-11-02T21:19:09.082Z,6.85
2018-11-02T21:21:38.546Z,7.90
2018-11-02T21:24:07.851Z,5.30
2018-11-02T21:26:37.104Z,7.58
2018-11-02T21:29:06.330Z,3.98
2018-11-02T21:31:35.514Z,3.98
2018-11-02T21:34:04.909Z,4.35
2018-11-02T21:36:34.176Z,3.45
2018-11-02T21:39:04.886Z,3.37
2018-11-02T21:41:34.141Z,3.58
2018-11-02T21:44:03.449Z,2.92
2018-11-02T21:46:35.583Z,3.20
2018-11-02T21:49:04.834Z,4.42
2018-11-02T21:51:34.187Z,3.17
2018-11-02T21:54:04.319Z,3.33
2018-11-02T21:56:33.585Z,3.92
2018-11-02T21:59:02.718Z,6.33
2018-11-02T22:01:32.004Z,4.70
2018-11-02T22:04:02.281Z,5.03
2018-11-02T22:06:32.574Z,3.77
2018-11-02T22:09:01.974Z,5.25
2018-11-02T22:11:31.301Z,3.47
2018-11-02T22:14:00.565Z,3.50
2018-11-02T22:16:29.886Z,3.95
2018-11-02T22:18:59.079Z,4.30
2018-11-02T22:21:28.425Z,4.60
2018-11-02T22:23:59.695Z,9.73
2018-11-02T22:26:28.974Z,14.53
2018-11-02T22:28:58.718Z,4.47
2018-11-02T22:31:28.075Z,6.15
2018-11-02T22:33:57.515Z,4.95
2018-11-02T22:36:26.841Z,8.60
2018-11-02T22:38:56.102Z,7.22
2018-11-02T22:41:25.354Z,6.40
2018-11-02T22:43:54.882Z,8.08
2018-11-02T22:46:25.184Z,4.03
2018-11-02T22:48:54.484Z,5.35
2018-11-02T22:51:23.716Z,4.60
2018-11-02T22:53:53.116Z,4.62
2018-11-02T22:56:23.434Z,4.45
2018-11-02T22:58:53.729Z,4.85
2018-11-02T23:01:26.917Z,12.65
2018-11-02T23:03:57.778Z,5.55
2018-11-02T23:06:27.221Z,9.18
2018-11-02T23:08:56.564Z,5.20
2018-11-02T23:11:25.742Z,4.45
2018-11-02T23:13:56.006Z,5.05
2018-11-02T23:16:25.282Z,5.40
2018-11-02T23:18:54.490Z,9.18
2018-11-02T23:21:23.725Z,9.85
2018-11-02T23:23:52.951Z,8.53
2018-11-02T23:26:22.193Z,6.95
2018-11-02T23:28:51.399Z,6.12
2018-11-02T23:31:20.697Z,5.33
2018-11-02T23:33:49.956Z,5.58
2018-11-02T23:36:19.146Z,11.85
2018-11-02T23:38:48.451Z,8.20
2018-11-02T23:41:17.662Z,6.15
2018-11-02T23:43:46.958Z,6.95
2018-11-02T23:46:16.344Z,5.37
2018-11-02T23:48:45.532Z,5.30
2018-11-02T23:51:14.736Z,6.00
2018-11-02T23:53:44.104Z,5.00
2018-11-02T23:56:13.269Z,5.20
2018-11-02T23:58:42.498Z,5.28
